This is the latest recevied weather packets stored in our database for station/object SP1BMW-13. If no packets are shown the sender has not sent any weather packets the latest 10 day(s).
| Time | Temp. | Humidity | Pressure | Rain* | Wind** | Luminosity | Snow |
|---|---|---|---|---|---|---|---|
| 1787645196 | 18.89° C | 74% | 1019.4 hPa | 0 mm | 0 m/s | 394 W/m² | - |
| 1787645137 | 18.89° C | 72% | 1019.2 hPa | 0 mm | 0.45 m/s, 105° | 393 W/m² | - |
| 1787645077 | 19.44° C | 70% | 1019.3 hPa | 0 mm | 2.24 m/s, 39° | 391 W/m² | - |
| 1787645016 | 18.89° C | 73% | 1019.3 hPa | 0 mm | 0 m/s | 388 W/m² | - |
| 1787644958 | 18.89° C | 73% | 1019.3 hPa | 0 mm | 0 m/s | 385 W/m² | - |
| 1787644896 | 18.89° C | 73% | 1019.2 hPa | 0 mm | 0.45 m/s, 6° | 381 W/m² | - |
| 1787644837 | 18.89° C | 73% | 1019.4 hPa | 0 mm | 0.89 m/s, 49° | 378 W/m² | - |
| 1787644777 | 18.89° C | 73% | 1019.3 hPa | 0 mm | 0.89 m/s, 46° | 375 W/m² | - |
| 1787644718 | 18.89° C | 73% | 1019.4 hPa | 0 mm | 0 m/s | 371 W/m² | - |
| 1787644657 | 18.89° C | 72% | 1019.5 hPa | 0 mm | 1.79 m/s, 1° | 361 W/m² | - |
| 1787644597 | 18.89° C | 73% | 1019.4 hPa | 0 mm | 0.89 m/s, 44° | 327 W/m² | - |
| 1787644537 | 18.89° C | 74% | 1019.4 hPa | 0 mm | 0.89 m/s, 109° | 308 W/m² | - |
| 1787644478 | 18.89° C | 74% | 1019.3 hPa | 0 mm | 1.34 m/s, 51° | 285 W/m² | - |
| 1787644417 | 18.89° C | 74% | 1019.3 hPa | 0 mm | 0.45 m/s, 58° | 257 W/m² | - |
| 1787644356 | 19.44° C | 73% | 1019.2 hPa | 0 mm | 0.89 m/s, 56° | 250 W/m² | - |
| 1787644297 | 19.44° C | 72% | 1019.2 hPa | 0 mm | 1.79 m/s, 39° | 243 W/m² | - |
| 1787644237 | 19.44° C | 73% | 1019.2 hPa | 0 mm | 0.89 m/s, 85° | 235 W/m² | - |
| 1787644177 | 19.44° C | 72% | 1019.2 hPa | 0 mm | 1.34 m/s, 9° | 229 W/m² | - |
| 1787644120 | 19.44° C | 73% | 1019 hPa | 0 mm | 0.45 m/s, 36° | 223 W/m² | - |
| 1787644057 | 19.44° C | 74% | 1019.2 hPa | 0 mm | 0 m/s | 217 W/m² | - |
| 1787643998 | 18.89° C | 73% | 1019 hPa | 0 mm | 0.45 m/s, 135° | 212 W/m² | - |
| 1787643938 | 18.89° C | 73% | 1019.1 hPa | 0 mm | 0.45 m/s, 34° | 206 W/m² | - |
| 1787643877 | 18.89° C | 73% | 1019.2 hPa | 0 mm | 0 m/s | 201 W/m² | - |
| 1787643817 | 18.89° C | 73% | 1018.9 hPa | 0 mm | 0.45 m/s, 332° | 199 W/m² | - |
| 1787643757 | 19.44° C | 74% | 1019.2 hPa | 0 mm | 0.89 m/s, 89° | 194 W/m² | - |
* Rain latest hour (hover to see other rain measurements)
** Current wind speed in m/s (hover to see current wind gust speed)